Time,TemperatureF,DewpointF,PressureIn,WindDirection,WindDirectionDegrees,WindSpeedMPH,WindSpeedGustMPH,Humidity,HourlyPrecipIn,Conditions,Clouds,dailyrainin,SoftwareType,DateUTC
2013-01-20 00:00:00,43.3,22.8,30.09,ENE,67,0.0,4.0,44,0.00,,,-99.99,WeatherLink 5.7,2013-01-20 08:00:00,
2013-01-20 00:15:00,42.8,22.4,30.09,ENE,67,0.0,1.0,44,0.00,,,-99.99,WeatherLink 5.7,2013-01-20 08:15:00,
2013-01-20 00:30:00,42.6,22.2,30.08,ENE,67,0.0,2.0,44,0.00,,,-99.99,WeatherLink 5.7,2013-01-20 08:30:00,
2013-01-20 00:45:00,43.1,21.0,30.08,ENE,67,0.0,2.0,41,0.00,,,-99.99,WeatherLink 5.7,2013-01-20 08:45:00,
2013-01-20 01:00:00,42.8,21.3,30.07,ENE,67,0.0,4.0,42,0.00,,,-99.99,WeatherLink 5.7,2013-01-20 09:00:00,
2013-01-20 01:15:00,42.6,20.5,30.07,ENE,67,0.0,5.0,41,0.00,,,-99.99,WeatherLink 5.7,2013-01-20 09:15:00,
2013-01-20 01:30:00,42.2,20.7,30.07,ENE,67,0.0,3.0,42,0.00,,,-99.99,WeatherLink 5.7,2013-01-20 09:30:00,
2013-01-20 01:45:00,41.8,20.9,30.07,ENE,67,1.0,4.0,43,0.00,,,-99.99,WeatherLink 5.7,2013-01-20 09:45:00,
2013-01-20 02:00:00,41.5,20.1,30.06,ENE,67,0.0,3.0,42,0.00,,,-99.99,WeatherLink 5.7,2013-01-20 10:00:00,
2013-01-20 02:15:00,41.8,20.9,30.06,ENE,67,0.0,3.0,43,0.00,,,-99.99,WeatherLink 5.7,2013-01-20 10:15:00,
2013-01-20 02:30:00,42.1,20.6,30.06,North,-999,0.0,0.0,42,0.00,,,-99.99,WeatherLink 5.7,2013-01-20 10:30:00,
2013-01-20 02:45:00,42.1,19.5,30.06,ENE,67,0.0,3.0,40,0.00,,,-99.99,WeatherLink 5.7,2013-01-20 10:45:00,
2013-01-20 03:00:00,42.3,17.8,30.06,ENE,67,0.0,4.0,37,0.00,,,-99.99,WeatherLink 5.7,2013-01-20 11:00:00,
2013-01-20 03:15:00,43.1,18.6,30.07,NNW,337,1.0,5.0,37,0.00,,,-99.99,WeatherLink 5.7,2013-01-20 11:15:00,
2013-01-20 03:30:00,43.5,18.3,30.07,NNW,337,0.0,3.0,36,0.00,,,-99.99,WeatherLink 5.7,2013-01-20 11:30:00,
2013-01-20 03:45:00,43.3,18.7,30.07,NNW,337,0.0,2.0,37,0.00,,,-99.99,WeatherLink 5.7,2013-01-20 11:45:00,
2013-01-20 04:00:00,43.1,18.6,30.07,NNW,337,0.0,2.0,37,0.00,,,-99.99,WeatherLink 5.7,2013-01-20 12:00:00,
2013-01-20 04:15:00,42.9,18.4,30.07,North,-999,0.0,0.0,37,0.00,,,-99.99,WeatherLink 5.7,2013-01-20 12:15:00,
2013-01-20 04:30:00,42.5,18.0,30.07,NNW,337,0.0,4.0,37,0.00,,,-99.99,WeatherLink 5.7,2013-01-20 12:30:00,
2013-01-20 04:45:00,41.9,18.7,30.08,NNW,337,0.0,2.0,39,0.00,,,-99.99,WeatherLink 5.7,2013-01-20 12:45:00,
2013-01-20 05:00:00,41.5,20.1,30.08,North,-999,0.0,0.0,42,0.00,,,-99.99,WeatherLink 5.7,2013-01-20 13:00:00,
2013-01-20 05:15:00,41.6,18.4,30.08,NNW,337,0.0,3.0,39,0.00,,,-99.99,WeatherLink 5.7,2013-01-20 13:15:00,
2013-01-20 05:30:00,41.6,19.0,30.08,North,-999,0.0,0.0,40,0.00,,,-99.99,WeatherLink 5.7,2013-01-20 13:30:00,
2013-01-20 05:45:00,41.9,19.3,30.08,North,-999,0.0,0.0,40,0.00,,,-99.99,WeatherLink 5.7,2013-01-20 13:45:00,
2013-01-20 06:00:00,42.6,19.3,30.09,NNW,337,0.0,2.0,39,0.00,,,-99.99,WeatherLink 5.7,2013-01-20 14:00:00,
2013-01-20 06:15:00,43.9,17.3,30.09,North,-999,0.0,0.0,34,0.00,,,-99.99,WeatherLink 5.7,2013-01-20 14:15:00,
2013-01-20 06:30:00,46.7,19.8,30.10,NNW,337,0.0,3.0,34,0.00,,,-99.99,WeatherLink 5.7,2013-01-20 14:30:00,
2013-01-20 06:45:00,49.8,21.8,30.09,North,-999,0.0,0.0,33,0.00,,,-99.99,WeatherLink 5.7,2013-01-20 14:45:00,
2013-01-20 07:00:00,53.5,20.3,30.09,North,-999,0.0,0.0,27,0.00,,,-99.99,WeatherLink 5.7,2013-01-20 15:00:00,
2013-01-20 07:15:00,56.2,21.7,30.09,North,-999,0.0,0.0,26,0.00,,,-99.99,WeatherLink 5.7,2013-01-20 15:15:00,
2013-01-20 07:30:00,59.2,25.2,30.09,NNW,337,0.0,3.0,27,0.00,,,-99.99,WeatherLink 5.7,2013-01-20 15:30:00,
2013-01-20 07:45:00,61.3,26.1,30.09,WSW,247,1.0,4.0,26,0.00,,,-99.99,WeatherLink 5.7,2013-01-20 15:45:00,
2013-01-20 08:00:00,63.1,20.1,30.08,WSW,247,0.0,3.0,19,0.00,,,-99.99,WeatherLink 5.7,2013-01-20 16:00:00,
2013-01-20 08:15:00,64.7,18.8,30.08,SW,225,1.0,4.0,17,0.00,,,-99.99,WeatherLink 5.7,2013-01-20 16:15:00,
2013-01-20 08:30:00,66.0,18.5,30.08,SSW,202,1.0,4.0,16,0.00,,,-99.99,WeatherLink 5.7,2013-01-20 16:30:00,
2013-01-20 08:45:00,67.1,16.3,30.08,SSW,202,1.0,5.0,14,0.00,,,-99.99,WeatherLink 5.7,2013-01-20 16:45:00,
2013-01-20 09:00:00,68.1,15.3,30.08,East,90,1.0,5.0,13,0.00,,,-99.99,WeatherLink 5.7,2013-01-20 17:00:00,
2013-01-20 09:15:00,69.6,14.7,30.07,ESE,112,1.0,4.0,12,0.00,,,-99.99,WeatherLink 5.7,2013-01-20 17:15:00,
2013-01-20 09:30:00,71.3,16.0,30.06,ESE,112,1.0,5.0,12,0.00,,,-99.99,WeatherLink 5.7,2013-01-20 17:30:00,
2013-01-20 09:45:00,72.8,15.2,30.04,ESE,112,1.0,4.0,11,0.00,,,-99.99,WeatherLink 5.7,2013-01-20 17:45:00,
2013-01-20 10:00:00,73.3,15.6,30.03,ESE,112,1.0,5.0,11,0.00,,,-99.99,WeatherLink 5.7,2013-01-20 18:00:00,
2013-01-20 10:15:00,73.9,11.4,30.02,NNW,337,2.0,11.0,9,0.00,,,-99.99,WeatherLink 5.7,2013-01-20 18:15:00,
2013-01-20 10:30:00,74.0,11.5,30.01,NNW,337,5.0,15.0,9,0.00,,,-99.99,WeatherLink 5.7,2013-01-20 18:30:00,
2013-01-20 10:45:00,74.2,14.1,30.00,NNW,337,5.0,15.0,10,0.00,,,-99.99,WeatherLink 5.7,2013-01-20 18:45:00,
2013-01-20 11:00:00,74.9,12.2,29.99,NW,315,5.0,14.0,9,0.00,,,-99.99,WeatherLink 5.7,2013-01-20 19:00:00,
2013-01-20 11:15:00,74.6,12.0,29.98,NW,315,6.0,15.0,9,0.00,,,-99.99,WeatherLink 5.7,2013-01-20 19:15:00,
2013-01-20 11:30:00,74.0,11.5,29.98,NW,315,7.0,17.0,9,0.00,,,-99.99,WeatherLink 5.7,2013-01-20 19:30:00,
2013-01-20 11:45:00,74.6,14.4,29.97,NNW,337,5.0,14.0,10,0.00,,,-99.99,WeatherLink 5.7,2013-01-20 19:45:00,
2013-01-20 12:00:00,74.4,11.8,29.97,NNW,337,6.0,19.0,9,0.00,,,-99.99,WeatherLink 5.7,2013-01-20 20:00:00,
2013-01-20 12:15:00,74.4,11.8,29.97,NNW,337,6.0,15.0,9,0.00,,,-99.99,WeatherLink 5.7,2013-01-20 20:15:00,
2013-01-20 12:30:00,74.6,14.4,29.96,WNW,292,5.0,15.0,10,0.00,,,-99.99,WeatherLink 5.7,2013-01-20 20:30:00,
2013-01-20 12:45:00,74.4,11.8,29.96,NNW,337,7.0,16.0,9,0.00,,,-99.99,WeatherLink 5.7,2013-01-20 20:45:00,
2013-01-20 13:00:00,74.2,11.7,29.96,NNW,337,7.0,18.0,9,0.00,,,-99.99,WeatherLink 5.7,2013-01-20 21:00:00,
2013-01-20 13:15:00,73.5,11.1,29.95,NNW,337,8.0,18.0,9,0.00,,,-99.99,WeatherLink 5.7,2013-01-20 21:15:00,
2013-01-20 13:30:00,73.5,11.1,29.95,NW,315,7.0,15.0,9,0.00,,,-99.99,WeatherLink 5.7,2013-01-20 21:30:00,
2013-01-20 13:45:00,73.5,13.5,29.95,NNW,337,6.0,16.0,10,0.00,,,-99.99,WeatherLink 5.7,2013-01-20 21:45:00,
2013-01-20 14:00:00,73.0,13.1,29.95,NNW,337,6.0,16.0,10,0.00,,,-99.99,WeatherLink 5.7,2013-01-20 22:00:00,
2013-01-20 14:15:00,71.8,12.2,29.96,NNW,337,9.0,22.0,10,0.00,,,-99.99,WeatherLink 5.7,2013-01-20 22:15:00,
2013-01-20 14:30:00,71.6,12.1,29.96,NW,315,7.0,18.0,10,0.00,,,-99.99,WeatherLink 5.7,2013-01-20 22:30:00,
2013-01-20 14:45:00,71.3,11.8,29.96,NNW,337,6.0,15.0,10,0.00,,,-99.99,WeatherLink 5.7,2013-01-20 22:45:00,
2013-01-20 15:00:00,70.8,11.5,29.97,West,270,6.0,18.0,10,0.00,,,-99.99,WeatherLink 5.7,2013-01-20 23:00:00,
2013-01-20 15:15:00,69.9,10.8,29.97,NNW,337,5.0,15.0,10,0.00,,,-99.99,WeatherLink 5.7,2013-01-20 23:15:00,
2013-01-20 15:30:00,69.3,10.3,29.97,NNW,337,5.0,18.0,10,0.00,,,-99.99,WeatherLink 5.7,2013-01-20 23:30:00,
2013-01-20 15:45:00,68.9,10.0,29.97,NNW,337,6.0,15.0,10,0.00,,,-99.99,WeatherLink 5.7,2013-01-20 23:45:00,
2013-01-20 16:00:00,68.4,9.6,29.98,NNW,337,3.0,15.0,10,0.00,,,-99.99,WeatherLink 5.7,2013-01-21 00:00:00,
2013-01-20 16:15:00,68.3,9.5,29.99,NNW,337,4.0,14.0,10,0.00,,,-99.99,WeatherLink 5.7,2013-01-21 00:15:00,
2013-01-20 16:30:00,67.9,9.2,29.99,North,0,4.0,13.0,10,0.00,,,-99.99,WeatherLink 5.7,2013-01-21 00:30:00,
2013-01-20 16:45:00,67.4,8.9,30.00,North,0,3.0,11.0,10,0.00,,,-99.99,WeatherLink 5.7,2013-01-21 00:45:00,
2013-01-20 17:00:00,67.1,10.8,30.00,NW,315,1.0,4.0,11,0.00,,,-99.99,WeatherLink 5.7,2013-01-21 01:00:00,
2013-01-20 17:15:00,65.8,7.6,30.01,WNW,292,1.0,7.0,10,0.00,,,-99.99,WeatherLink 5.7,2013-01-21 01:15:00,
2013-01-20 17:30:00,65.2,11.2,30.01,WNW,292,0.0,6.0,12,0.00,,,-99.99,WeatherLink 5.7,2013-01-21 01:30:00,
2013-01-20 17:45:00,63.5,9.9,30.01,West,270,0.0,4.0,12,0.00,,,-99.99,WeatherLink 5.7,2013-01-21 01:45:00,
2013-01-20 18:00:00,62.7,11.1,30.02,West,270,0.0,3.0,13,0.00,,,-99.99,WeatherLink 5.7,2013-01-21 02:00:00,
2013-01-20 18:15:00,61.0,14.4,30.01,North,-999,0.0,0.0,16,0.00,,,-99.99,WeatherLink 5.7,2013-01-21 02:15:00,
2013-01-20 18:30:00,58.6,13.9,30.02,West,270,0.0,3.0,17,0.00,,,-99.99,WeatherLink 5.7,2013-01-21 02:30:00,
2013-01-20 18:45:00,57.3,15.3,30.02,East,90,1.0,3.0,19,0.00,,,-99.99,WeatherLink 5.7,2013-01-21 02:45:00,
2013-01-20 19:00:00,56.9,16.2,30.03,North,0,0.0,4.0,20,0.00,,,-99.99,WeatherLink 5.7,2013-01-21 03:00:00,
2013-01-20 19:15:00,55.9,15.3,30.01,West,270,0.0,5.0,20,0.00,,,-99.99,WeatherLink 5.7,2013-01-21 03:15:00,
2013-01-20 19:30:00,55.1,15.8,30.01,West,270,0.0,3.0,21,0.00,,,-99.99,WeatherLink 5.7,2013-01-21 03:30:00,
2013-01-20 19:45:00,55.0,10.9,30.02,West,270,0.0,3.0,17,0.00,,,-99.99,WeatherLink 5.7,2013-01-21 03:45:00,
2013-01-20 20:00:00,57.5,10.1,30.02,WNW,292,1.0,6.0,15,0.00,,,-99.99,WeatherLink 5.7,2013-01-21 04:00:00,
2013-01-20 20:15:00,58.6,13.9,30.01,NW,315,1.0,4.0,17,0.00,,,-99.99,WeatherLink 5.7,2013-01-21 04:15:00,
2013-01-20 20:30:00,57.2,15.2,30.01,NW,315,0.0,3.0,19,0.00,,,-99.99,WeatherLink 5.7,2013-01-21 04:30:00,
2013-01-20 20:45:00,55.0,18.8,30.02,East,90,1.0,4.0,24,0.00,,,-99.99,WeatherLink 5.7,2013-01-21 04:45:00,
2013-01-20 21:00:00,53.3,15.4,30.02,East,90,1.0,3.0,22,0.00,,,-99.99,WeatherLink 5.7,2013-01-21 05:00:00,
2013-01-20 21:15:00,52.3,16.5,30.01,East,90,0.0,3.0,24,0.00,,,-99.99,WeatherLink 5.7,2013-01-21 05:15:00,
2013-01-20 21:30:00,50.8,17.1,30.01,North,-999,0.0,0.0,26,0.00,,,-99.99,WeatherLink 5.7,2013-01-21 05:30:00,
2013-01-20 21:45:00,49.4,16.8,30.01,East,90,1.0,5.0,27,0.00,,,-99.99,WeatherLink 5.7,2013-01-21 05:45:00,
2013-01-20 22:00:00,48.8,16.2,30.01,NNW,337,0.0,5.0,27,0.00,,,-99.99,WeatherLink 5.7,2013-01-21 06:00:00,
2013-01-20 22:15:00,48.3,15.8,30.01,NE,45,0.0,4.0,27,0.00,,,-99.99,WeatherLink 5.7,2013-01-21 06:15:00,
2013-01-20 22:30:00,48.0,16.4,30.00,NE,45,0.0,2.0,28,0.00,,,-99.99,WeatherLink 5.7,2013-01-21 06:30:00,
2013-01-20 22:45:00,47.4,17.5,30.00,NE,45,0.0,3.0,30,0.00,,,-99.99,WeatherLink 5.7,2013-01-21 06:45:00,
2013-01-20 23:00:00,46.7,16.9,30.00,NE,45,1.0,4.0,30,0.00,,,-99.99,WeatherLink 5.7,2013-01-21 07:00:00,
2013-01-20 23:15:00,46.2,16.4,30.00,NE,45,0.0,3.0,30,0.00,,,-99.99,WeatherLink 5.7,2013-01-21 07:15:00,
2013-01-20 23:30:00,45.7,17.5,30.00,North,-999,0.0,0.0,32,0.00,,,-99.99,WeatherLink 5.7,2013-01-21 07:30:00,
2013-01-20 23:45:00,45.1,17.0,30.00,North,-999,0.0,0.0,32,0.00,,,-99.99,WeatherLink 5.7,2013-01-21 07:45:00,